This is the latest recevied weather packets stored in our database for station/object OE2SWM. If no packets are shown the sender has not sent any weather packets the latest 10 day(s).
| Time | Temp. | Humidity | Pressure | Rain* | Wind** | Luminosity | Snow |
|---|---|---|---|---|---|---|---|
| 1777710600 | 12.78° C | 54% | 976 hPa | 0 mm | - | - | - |
| 1777710000 | 12.78° C | 55% | 976 hPa | 0 mm | - | - | - |
| 1777709400 | 11.67° C | 57% | 977 hPa | 0 mm | - | - | - |
| 1777708800 | 11.67° C | 58% | 977 hPa | 0 mm | - | - | - |
| 1777708200 | 11.67° C | 59% | 977 hPa | 0 mm | - | - | - |
| 1777707600 | 10.56° C | 61% | 977 hPa | 0 mm | - | - | - |
| 1777707000 | 10.56° C | 64% | 977 hPa | 0 mm | - | - | - |
| 1777706400 | 10° C | 65% | 977 hPa | 0 mm | - | - | - |
| 1777705800 | 10° C | 65% | 977 hPa | 0 mm | - | - | - |
| 1777705200 | 10° C | 64% | 977 hPa | 0 mm | - | - | - |
| 1777704600 | 10° C | 64% | 977 hPa | 0 mm | - | - | - |
| 1777704000 | 10° C | 63% | 977 hPa | 0 mm | - | - | - |
| 1777703400 | 10° C | 65% | 977 hPa | 0 mm | - | - | - |
| 1777702800 | 10° C | 66% | 978 hPa | 0 mm | - | - | - |
| 1777702200 | 10° C | 63% | 978 hPa | 0 mm | - | - | - |
| 1777701600 | 10° C | 64% | 978 hPa | 0 mm | - | - | - |
| 1777701000 | 8.89° C | 64% | 978 hPa | 0 mm | - | - | - |
| 1777700400 | 10.56° C | 60% | 978 hPa | 0 mm | - | - | - |
| 1777699800 | 13.89° C | 51% | 978 hPa | 0 mm | - | - | - |
| 1777699200 | 17.78° C | 43% | 978 hPa | 0 mm | - | - | - |
| 1777698600 | 20° C | 42% | 978 hPa | 0 mm | - | - | - |
| 1777698000 | 20° C | 42% | 978 hPa | 0 mm | - | - | - |
| 1777697400 | 16.67° C | 48% | 978 hPa | 0 mm | - | - | - |
| 1777696800 | 13.89° C | 53% | 978 hPa | 0 mm | - | - | - |
| 1777696200 | 10° C | 63% | 978 hPa | 0 mm | - | - | - |
* Rain latest hour (hover to see other rain measurements)
** Current wind speed in m/s (hover to see current wind gust speed)